Time;durP1;ratioP1;P1;durP2;ratioP2;P2;SDS_P1;SDS_P2;PMS_P1;PMS_P2;Temp;Humidity;BMP_temperature;BMP_pressure;BME280_temperature;BME280_humidity;BME280_pressure;Samples;Min_cycle;Max_cycle;Signal;HPM_P1;HPM_P2
2023/01/31 00:02:03;;;;;;;29.67;14.50;;;;;;;0.44;94.18;94138.31;5069697;28;20627;-76
2023/01/31 00:04:30;;;;;;;27.93;14.17;;;;;;;0.42;94.07;94146.19;5067120;28;20195;-77
2023/01/31 00:06:57;;;;;;;27.70;12.57;;;;;;;0.39;93.81;94158.50;5067475;28;20226;-79
2023/01/31 00:09:23;;;;;;;24.27;12.00;;;;;;;0.38;92.79;94150.03;5072011;28;20255;-77
2023/01/31 00:11:50;;;;;;;25.37;12.77;;;;;;;0.42;93.33;94140.25;5068649;28;20224;-76
2023/01/31 00:14:20;;;;;;;27.13;12.60;;;;;;;0.45;93.75;94139.94;5066872;28;20208;-82
2023/01/31 00:16:47;;;;;;;25.10;12.60;;;;;;;0.50;93.07;94135.09;5068761;28;20197;-76
2023/01/31 00:19:14;;;;;;;23.57;12.37;;;;;;;0.51;93.26;94141.81;5071477;28;20201;-76
2023/01/31 00:21:42;;;;;;;25.10;11.97;;;;;;;0.51;93.18;94149.47;5068397;28;20190;-77
2023/01/31 00:24:12;;;;;;;28.60;12.73;;;;;;;0.52;93.85;94141.63;5067491;28;20241;-78
2023/01/31 00:26:39;;;;;;;26.30;12.53;;;;;;;0.57;92.91;94141.13;5069180;28;20212;-78
2023/01/31 00:29:06;;;;;;;24.83;12.03;;;;;;;0.51;93.24;94136.69;5069042;28;20215;-78
2023/01/31 00:31:35;;;;;;;25.33;12.70;;;;;;;0.52;93.23;94131.41;5075433;28;20228;-78
2023/01/31 00:34:02;;;;;;;29.90;12.90;;;;;;;0.63;92.64;94137.09;5074034;28;20216;-77
2023/01/31 00:36:30;;;;;;;27.37;12.13;;;;;;;0.51;92.57;94139.25;5070328;28;20202;-75
2023/01/31 00:38:59;;;;;;;25.03;12.27;;;;;;;0.40;93.06;94125.13;5071457;28;20271;-76
2023/01/31 00:41:27;;;;;;;29.60;13.23;;;;;;;0.39;93.17;94145.72;5075526;28;20687;-76
2023/01/31 00:43:54;;;;;;;25.93;13.10;;;;;;;0.41;93.31;94143.78;5069810;28;20263;-76
2023/01/31 00:46:22;;;;;;;25.07;13.23;;;;;;;0.45;94.20;94142.47;5072728;28;20215;-78
2023/01/31 00:48:51;;;;;;;27.47;13.70;;;;;;;0.35;93.82;94134.22;5078978;28;20743;-78
2023/01/31 00:51:18;;;;;;;26.60;13.07;;;;;;;0.45;94.24;94135.63;5071705;28;20224;-78
2023/01/31 00:53:45;;;;;;;23.97;12.50;;;;;;;0.50;93.99;94138.44;5067652;28;20280;-78
2023/01/31 00:56:16;;;;;;;27.13;12.40;;;;;;;0.41;93.93;94134.34;5075479;28;20201;-77
2023/01/31 00:58:43;;;;;;;27.10;12.97;;;;;;;0.37;93.40;94122.09;5072838;28;20199;-78
2023/01/31 01:01:12;;;;;;;32.00;14.30;;;;;;;0.26;94.31;94136.03;5071360;28;20209;-78
2023/01/31 01:03:40;;;;;;;30.43;13.87;;;;;;;0.37;94.26;94143.34;5076526;28;20197;-76
2023/01/31 01:06:09;;;;;;;30.30;14.03;;;;;;;0.38;94.88;94165.34;5071937;28;20212;-76
2023/01/31 01:08:37;;;;;;;32.07;14.63;;;;;;;0.35;94.81;94152.09;5068811;28;21169;-76
2023/01/31 01:11:05;;;;;;;29.83;14.10;;;;;;;0.19;94.88;94154.75;5075499;28;20603;-76
2023/01/31 01:13:32;;;;;;;32.97;14.23;;;;;;;0.15;95.56;94164.50;5074088;28;20197;-76
2023/01/31 01:16:04;;;;;;;32.37;13.90;;;;;;;0.13;95.23;94158.78;5071221;28;20737;-76
2023/01/31 01:18:34;;;;;;;26.53;13.57;;;;;;;0.00;94.98;94159.31;5071969;28;20664;-76
2023/01/31 01:21:06;;;;;;;29.90;14.03;;;;;;;-0.03;95.67;94154.53;5069154;28;20302;-76
2023/01/31 01:23:34;;;;;;;31.27;14.37;;;;;;;-0.03;95.43;94144.31;5071937;28;20197;-75
2023/01/31 01:26:01;;;;;;;30.03;13.77;;;;;;;0.17;95.07;94152.38;5071150;28;20671;-75
2023/01/31 01:28:27;;;;;;;29.30;14.47;;;;;;;0.20;94.48;94139.28;5073832;28;20196;-75
2023/01/31 01:30:54;;;;;;;33.60;15.80;;;;;;;0.25;94.98;94139.56;5071457;28;20298;-77
2023/01/31 01:33:21;;;;;;;34.43;16.73;;;;;;;0.24;94.78;94143.06;5070892;28;20216;-77
2023/01/31 01:35:48;;;;;;;33.90;16.90;;;;;;;0.20;96.07;94134.19;5071232;28;20208;-78
2023/01/31 01:38:14;;;;;;;34.70;16.03;;;;;;;0.19;95.45;94130.03;5071056;28;20205;-78
2023/01/31 01:40:42;;;;;;;32.07;15.07;;;;;;;0.18;95.64;94142.94;5076926;28;20200;-78
2023/01/31 01:43:11;;;;;;;35.27;14.77;;;;;;;0.22;95.12;94134.00;5071323;28;20210;-77
2023/01/31 01:45:38;;;;;;;31.97;14.43;;;;;;;0.33;92.28;94146.38;5074659;28;20289;-77
2023/01/31 01:48:08;;;;;;;35.47;14.13;;;;;;;0.38;88.14;94157.69;5073544;28;20582;-74
2023/01/31 01:50:39;;;;;;;30.33;12.33;;;;;;;0.32;86.00;94147.34;5070116;28;20653;-74
2023/01/31 01:53:10;;;;;;;20.13;9.47;;;;;;;0.56;83.95;94145.44;5069979;28;20855;-75
2023/01/31 01:55:42;;;;;;;14.27;7.33;;;;;;;0.63;83.50;94152.44;5075460;28;20198;-75
2023/01/31 01:58:14;;;;;;;16.37;8.33;;;;;;;0.72;83.16;94147.09;5067995;28;20733;-75
2023/01/31 02:00:41;;;;;;;18.43;9.13;;;;;;;0.86;82.05;94145.56;5069462;28;20556;-74
2023/01/31 02:03:08;;;;;;;22.03;10.53;;;;;;;0.87;82.88;94137.69;5071814;28;20209;-75
2023/01/31 02:05:40;;;;;;;19.73;9.63;;;;;;;1.01;81.67;94149.75;5067855;28;20190;-74
2023/01/31 02:08:08;;;;;;;14.90;8.60;;;;;;;1.02;80.53;94159.00;5069074;28;20210;-74
2023/01/31 02:10:42;;;;;;;16.93;9.00;;;;;;;1.06;80.91;94154.34;5069286;28;20205;-75
2023/01/31 02:13:11;;;;;;;13.97;7.40;;;;;;;1.02;80.73;94153.09;5068849;28;20233;-74
2023/01/31 02:15:38;;;;;;;19.47;8.03;;;;;;;0.85;81.11;94157.53;5070203;28;20287;-75
2023/01/31 02:18:06;;;;;;;14.33;7.83;;;;;;;0.83;81.66;94146.69;5074575;28;20215;-78
2023/01/31 02:20:59;;;;;;;16.77;8.23;;;;;;;0.89;80.81;94147.78;5075637;28;20193;-75
2023/01/31 02:23:49;;;;;;;14.83;7.70;;;;;;;0.95;80.89;94157.31;5067004;28;20205;-75
2023/01/31 02:26:50;;;;;;;14.67;7.80;;;;;;;0.96;80.43;94153.78;5070816;28;20194;-77
2023/01/31 02:30:07;;;;;;;14.03;7.63;;;;;;;1.02;80.59;94151.34;5070469;28;20245;-77
2023/01/31 02:32:53;;;;;;;13.23;7.00;;;;;;;1.02;80.50;94158.22;5031070;28;20235;-77
2023/01/31 02:35:31;;;;;;;18.53;8.40;;;;;;;0.86;81.42;94163.47;5070418;28;20201;-78
2023/01/31 02:38:08;;;;;;;18.47;9.30;;;;;;;0.86;81.53;94164.25;5071595;28;20193;-77
2023/01/31 02:40:42;;;;;;;15.30;8.10;;;;;;;0.93;81.76;94165.16;5068022;28;20191;-77
2023/01/31 02:43:13;;;;;;;16.30;8.83;;;;;;;0.89;80.95;94163.91;5070779;28;21540;-78
2023/01/31 02:45:47;;;;;;;15.63;7.83;;;;;;;1.04;80.80;94161.38;5074005;28;20190;-78
2023/01/31 02:48:22;;;;;;;12.23;7.03;;;;;;;1.03;80.95;94164.94;5073528;28;20199;-76
2023/01/31 02:50:57;;;;;;;16.30;8.00;;;;;;;1.09;81.31;94167.59;5071582;28;20250;-77
2023/01/31 02:53:29;;;;;;;15.33;8.33;;;;;;;1.01;82.14;94179.66;5072430;28;20194;-76
2023/01/31 02:56:16;;;;;;;18.03;8.87;;;;;;;0.74;83.65;94177.59;5066933;28;20204;-76
2023/01/31 02:58:49;;;;;;;15.93;8.23;;;;;;;0.58;84.32;94191.28;5067348;28;20210;-76
2023/01/31 03:01:19;;;;;;;16.43;8.00;;;;;;;0.59;84.56;94190.31;5071896;28;20691;-75
2023/01/31 03:03:47;;;;;;;17.10;8.70;;;;;;;0.57;84.67;94203.28;5073795;28;20190;-77
2023/01/31 03:07:00;;;;;;;17.17;8.43;;;;;;;0.46;84.94;94205.41;5071312;28;20202;-76
2023/01/31 03:09:38;;;;;;;14.57;7.73;;;;;;;0.39;85.95;94207.84;5045371;28;20201;-76
2023/01/31 03:12:41;;;;;;;13.27;7.50;;;;;;;0.32;86.55;94216.31;5071631;28;20240;-75
2023/01/31 03:15:25;;;;;;;16.27;8.23;;;;;;;0.51;86.71;94226.16;5065013;28;20208;-75
2023/01/31 03:18:00;;;;;;;18.73;9.00;;;;;;;0.47;86.66;94225.69;5067238;28;20190;-75
2023/01/31 03:20:34;;;;;;;19.17;8.37;;;;;;;0.46;87.37;94223.31;5065378;28;20204;-75
2023/01/31 03:23:04;;;;;;;19.70;8.50;;;;;;;0.36;87.84;94228.59;5069327;28;20192;-75
2023/01/31 03:25:35;;;;;;;16.23;8.70;;;;;;;0.21;88.01;94220.03;5068468;28;20209;-75
2023/01/31 03:28:06;;;;;;;15.27;8.37;;;;;;;0.40;88.15;94239.31;5066568;28;20205;-75
2023/01/31 03:30:37;;;;;;;17.07;8.77;;;;;;;0.39;88.09;94245.38;5068815;28;20252;-75
2023/01/31 03:33:10;;;;;;;15.70;8.50;;;;;;;0.36;88.33;94235.47;5067022;28;20710;-77
2023/01/31 03:35:42;;;;;;;18.60;9.10;;;;;;;0.36;89.18;94243.13;5065903;28;20644;-78
2023/01/31 03:38:17;;;;;;;19.63;8.90;;;;;;;0.37;89.30;94250.66;5076620;28;20209;-78
2023/01/31 03:40:52;;;;;;;19.93;9.80;;;;;;;0.46;89.86;94251.41;5071572;28;20197;-78
2023/01/31 03:43:25;;;;;;;17.57;9.47;;;;;;;0.48;89.70;94264.81;5067684;28;20204;-78
2023/01/31 03:45:57;;;;;;;17.97;8.47;;;;;;;0.56;89.87;94282.66;5069811;28;20198;-77
2023/01/31 03:48:30;;;;;;;17.20;8.87;;;;;;;0.48;91.15;94273.28;5069585;28;20198;-77
2023/01/31 03:51:00;;;;;;;22.50;9.63;;;;;;;0.48;91.45;94265.63;5068181;28;20201;-77
2023/01/31 03:53:32;;;;;;;19.00;9.70;;;;;;;0.44;92.34;94272.00;5066598;28;20226;-77
2023/01/31 03:56:03;;;;;;;20.97;10.40;;;;;;;0.45;93.07;94272.81;5072860;28;20340;-77
2023/01/31 03:58:37;;;;;;;22.53;11.00;;;;;;;0.47;93.19;94281.09;5071072;28;20576;-77
2023/01/31 04:01:07;;;;;;;21.10;10.67;;;;;;;0.45;94.04;94273.63;5066313;28;20208;-76
2023/01/31 04:03:39;;;;;;;19.20;9.97;;;;;;;0.42;94.83;94273.13;5072810;28;20629;-76
2023/01/31 04:06:09;;;;;;;20.53;10.27;;;;;;;0.40;95.54;94264.84;5072333;28;20689;-76
2023/01/31 04:08:36;;;;;;;22.77;11.57;;;;;;;0.33;96.37;94256.25;5073888;28;20254;-76
2023/01/31 04:11:05;;;;;;;27.57;11.83;;;;;;;0.43;97.04;94272.19;5079732;28;20675;-76
2023/01/31 04:13:32;;;;;;;33.40;13.90;;;;;;;0.32;97.32;94275.88;5070450;28;20221;-77
2023/01/31 04:15:59;;;;;;;31.47;12.60;;;;;;;0.26;97.87;94270.66;5073974;28;20201;-76
2023/01/31 04:18:25;;;;;;;27.27;12.90;;;;;;;0.25;98.27;94272.41;5076057;28;20201;-75
2023/01/31 04:20:52;;;;;;;36.10;13.70;;;;;;;0.18;99.29;94273.22;5072135;28;20563;-76
2023/01/31 04:23:20;;;;;;;29.13;13.53;;;;;;;0.19;99.77;94265.41;5075498;28;20205;-77
2023/01/31 04:25:47;;;;;;;30.33;13.37;;;;;;;0.14;99.53;94270.22;5070347;28;20197;-77
2023/01/31 04:28:14;;;;;;;30.07;12.73;;;;;;;0.15;100.00;94273.53;5070500;28;20208;-77
2023/01/31 04:30:41;;;;;;;27.30;13.07;;;;;;;0.16;100.00;94287.91;5071616;28;20240;-77
2023/01/31 04:33:08;;;;;;;22.13;11.07;;;;;;;0.24;100.00;94290.44;5075900;28;20228;-77
2023/01/31 04:35:34;;;;;;;23.47;12.10;;;;;;;0.24;100.00;94282.78;5073500;28;20243;-78
2023/01/31 04:38:01;;;;;;;26.60;12.27;;;;;;;0.28;100.00;94286.59;5072264;28;20332;-73
2023/01/31 04:40:29;;;;;;;22.80;11.20;;;;;;;0.16;100.00;94293.03;5070170;28;20208;-73
2023/01/31 04:42:56;;;;;;;26.63;13.03;;;;;;;0.13;100.00;94283.13;5069045;28;20607;-74
2023/01/31 04:45:23;;;;;;;28.00;13.30;;;;;;;0.05;100.00;94290.81;5067879;28;20267;-74
2023/01/31 04:47:50;;;;;;;28.00;13.60;;;;;;;0.12;100.00;94296.84;5073844;28;20660;-74
2023/01/31 04:50:17;;;;;;;31.10;14.83;;;;;;;0.14;100.00;94297.50;5068455;28;20197;-73
2023/01/31 04:52:46;;;;;;;27.83;13.73;;;;;;;0.17;100.00;94308.19;5070647;28;20279;-74
2023/01/31 04:55:12;;;;;;;25.27;13.03;;;;;;;0.11;100.00;94290.97;5070941;28;20227;-74
2023/01/31 04:57:41;;;;;;;30.17;15.03;;;;;;;0.07;100.00;94288.88;5070731;28;20583;-74
2023/01/31 05:00:09;;;;;;;24.70;13.73;;;;;;;0.15;100.00;94301.63;5068275;28;20208;-74
2023/01/31 05:02:37;;;;;;;27.87;13.77;;;;;;;0.15;100.00;94294.78;5070915;28;20217;-74
2023/01/31 05:05:04;;;;;;;24.00;13.17;;;;;;;0.23;100.00;94301.63;5069214;28;20204;-73
2023/01/31 05:07:30;;;;;;;30.63;14.40;;;;;;;0.22;100.00;94308.50;5072045;28;20189;-74
2023/01/31 05:09:57;;;;;;;27.17;14.63;;;;;;;0.25;100.00;94297.94;5077807;28;20200;-74
2023/01/31 05:12:25;;;;;;;29.97;13.97;;;;;;;0.30;100.00;94311.03;5067369;28;20220;-73
2023/01/31 05:14:53;;;;;;;30.47;14.20;;;;;;;0.16;100.00;94309.16;5069069;28;20212;-80
2023/01/31 05:17:25;;;;;;;26.83;12.80;;;;;;;0.11;100.00;94320.81;5075144;28;20197;-74
2023/01/31 05:19:52;;;;;;;23.67;11.87;;;;;;;0.07;100.00;94310.13;5070930;28;20675;-76
2023/01/31 05:22:21;;;;;;;19.70;10.80;;;;;;;-0.01;100.00;94318.59;5070050;28;20194;-74
2023/01/31 05:24:48;;;;;;;22.33;11.87;;;;;;;-0.03;100.00;94300.06;5068054;28;20197;-73
2023/01/31 05:27:15;;;;;;;19.30;10.37;;;;;;;-0.05;100.00;94311.41;5069915;28;20221;-73
2023/01/31 05:29:42;;;;;;;20.80;11.07;;;;;;;0.05;100.00;94301.84;5067991;28;20241;-73
2023/01/31 05:32:11;;;;;;;22.90;11.53;;;;;;;0.12;100.00;94307.88;5069677;28;20232;-74
2023/01/31 05:34:38;;;;;;;21.33;11.47;;;;;;;0.20;100.00;94315.53;5070496;28;20927;-73
2023/01/31 05:37:05;;;;;;;22.13;11.63;;;;;;;0.17;100.00;94309.94;5067553;28;20231;-73
2023/01/31 05:39:32;;;;;;;22.27;11.47;;;;;;;0.28;100.00;94307.03;5069199;28;20254;-73
2023/01/31 05:41:58;;;;;;;21.77;12.23;;;;;;;0.31;100.00;94304.97;5070790;28;20197;-74
2023/01/31 05:44:32;;;;;;;24.17;12.13;;;;;;;0.39;100.00;94317.72;5069316;28;20626;-74
2023/01/31 05:46:59;;;;;;;25.43;12.27;;;;;;;0.37;100.00;94316.28;5071088;28;20201;-75
2023/01/31 05:49:32;;;;;;;27.40;12.93;;;;;;;0.30;100.00;94328.91;5069167;28;20193;-73
2023/01/31 05:51:58;;;;;;;22.00;11.43;;;;;;;0.37;100.00;94331.63;5067278;28;20194;-73
2023/01/31 05:54:25;;;;;;;22.53;12.20;;;;;;;0.32;100.00;94331.28;5068287;28;20676;-73
2023/01/31 05:56:52;;;;;;;24.73;13.20;;;;;;;0.37;100.00;94336.72;5071432;28;20255;-72
2023/01/31 05:59:19;;;;;;;25.73;13.40;;;;;;;0.44;100.00;94332.53;5071598;28;20194;-73
2023/01/31 06:01:46;;;;;;;26.43;13.30;;;;;;;0.51;100.00;94336.03;5074923;28;20256;-72
2023/01/31 06:04:13;;;;;;;24.60;12.37;;;;;;;0.59;100.00;94336.00;5071004;28;20298;-72
2023/01/31 06:06:41;;;;;;;22.93;13.13;;;;;;;0.60;100.00;94336.81;5065994;28;20202;-73
2023/01/31 06:09:08;;;;;;;25.07;13.37;;;;;;;0.64;100.00;94343.97;5064410;28;20213;-72
2023/01/31 06:11:34;;;;;;;24.30;13.33;;;;;;;0.61;100.00;94334.06;5072536;28;20834;-73
2023/01/31 06:14:01;;;;;;;25.07;13.97;;;;;;;0.69;100.00;94343.50;5063810;28;20217;-73
2023/01/31 06:16:28;;;;;;;24.43;11.63;;;;;;;0.56;100.00;94337.16;5067124;28;21550;-74
2023/01/31 06:18:55;;;;;;;24.97;13.00;;;;;;;0.67;100.00;94335.97;5070982;28;20679;-73
2023/01/31 06:21:23;;;;;;;24.53;12.67;;;;;;;0.66;100.00;94334.41;5066578;28;20201;-73
2023/01/31 06:23:51;;;;;;;21.90;11.43;;;;;;;0.52;100.00;94342.72;5066860;28;20259;-73
2023/01/31 06:26:18;;;;;;;22.40;12.47;;;;;;;0.49;100.00;94338.75;5073588;28;20197;-73
2023/01/31 06:28:44;;;;;;;25.07;12.57;;;;;;;0.46;100.00;94340.84;5066785;28;20694;-73
2023/01/31 06:31:12;;;;;;;24.70;13.50;;;;;;;0.13;100.00;94303.56;5070853;28;20796;-73
2023/01/31 06:33:38;;;;;;;26.03;13.00;;;;;;;0.28;100.00;94324.94;5074389;28;20222;-72
2023/01/31 06:36:06;;;;;;;23.93;11.80;;;;;;;0.35;100.00;94341.97;5065595;28;20207;-74
2023/01/31 06:38:33;;;;;;;24.87;13.30;;;;;;;0.38;100.00;94339.09;5067552;28;20207;-73
2023/01/31 06:41:01;;;;;;;24.37;12.57;;;;;;;0.43;100.00;94344.50;5069646;28;20204;-73
2023/01/31 06:43:28;;;;;;;21.77;11.87;;;;;;;0.53;100.00;94344.34;5065364;28;20706;-75
2023/01/31 06:45:55;;;;;;;22.83;11.60;;;;;;;0.51;100.00;94347.06;5067717;28;20195;-74
2023/01/31 06:48:22;;;;;;;24.40;11.77;;;;;;;0.55;100.00;94344.97;5073496;28;20201;-73
2023/01/31 06:50:48;;;;;;;18.00;10.70;;;;;;;0.50;100.00;94345.47;5061245;28;20549;-73
2023/01/31 06:53:15;;;;;;;23.47;11.33;;;;;;;0.56;100.00;94352.47;5069234;28;20658;-73
2023/01/31 06:55:42;;;;;;;20.97;9.97;;;;;;;0.66;100.00;94344.63;5070461;28;20344;-73
2023/01/31 06:58:10;;;;;;;23.87;11.53;;;;;;;0.71;100.00;94349.22;5070968;28;20207;-73
2023/01/31 07:00:37;;;;;;;23.37;12.40;;;;;;;0.74;100.00;94338.69;5066457;28;20213;-73
2023/01/31 07:03:04;;;;;;;20.90;10.90;;;;;;;0.79;100.00;94344.09;5068442;28;20238;-73
2023/01/31 07:05:31;;;;;;;24.53;13.03;;;;;;;0.82;100.00;94352.22;5065404;28;20199;-74
2023/01/31 07:07:58;;;;;;;22.93;12.17;;;;;;;0.82;100.00;94359.91;5066668;28;20208;-73
2023/01/31 07:10:24;;;;;;;31.83;13.03;;;;;;;0.76;100.00;94363.09;5069640;28;20208;-74
2023/01/31 07:12:51;;;;;;;27.47;13.53;;;;;;;0.85;100.00;94362.13;5068021;28;20211;-74
2023/01/31 07:15:20;;;;;;;27.13;13.73;;;;;;;0.83;100.00;94366.63;5066475;28;20201;-73
2023/01/31 07:17:46;;;;;;;28.17;14.53;;;;;;;0.89;100.00;94360.03;5073768;28;20198;-73
2023/01/31 07:20:13;;;;;;;22.37;12.60;;;;;;;0.97;100.00;94368.47;5067029;28;20731;-73
2023/01/31 07:22:40;;;;;;;23.00;11.30;;;;;;;1.09;100.00;94369.69;5065786;28;20200;-73
2023/01/31 07:25:08;;;;;;;18.67;11.00;;;;;;;1.14;100.00;94369.19;5068614;28;20201;-73
2023/01/31 07:27:34;;;;;;;19.23;10.90;;;;;;;0.93;100.00;94369.75;5065152;28;20696;-73
2023/01/31 07:30:01;;;;;;;21.10;10.83;;;;;;;0.82;100.00;94375.25;5067281;28;20221;-73
2023/01/31 07:32:33;;;;;;;28.70;14.23;;;;;;;0.94;100.00;94368.00;5065634;28;20656;-73
2023/01/31 07:35:00;;;;;;;24.67;12.30;;;;;;;0.90;100.00;94374.41;5064965;28;20775;-73
2023/01/31 07:37:28;;;;;;;23.83;12.50;;;;;;;1.03;100.00;94365.25;5067551;28;20204;-74
2023/01/31 07:39:54;;;;;;;26.00;14.00;;;;;;;0.99;100.00;94368.28;5072863;28;20195;-74
2023/01/31 07:42:21;;;;;;;28.20;14.33;;;;;;;1.11;100.00;94377.19;5064615;28;20272;-74
2023/01/31 07:44:48;;;;;;;33.80;16.40;;;;;;;1.17;100.00;94378.28;5064823;28;20531;-73
2023/01/31 07:47:15;;;;;;;30.87;14.73;;;;;;;1.14;100.00;94381.97;5070209;28;20647;-74
2023/01/31 07:49:43;;;;;;;23.30;12.47;;;;;;;1.06;100.00;94364.13;5070701;28;20629;-73
2023/01/31 07:52:10;;;;;;;28.07;14.20;;;;;;;1.07;100.00;94381.03;5076605;28;20251;-73
2023/01/31 07:54:37;;;;;;;28.10;14.07;;;;;;;1.05;100.00;94390.66;5080137;28;20224;-73
2023/01/31 07:57:03;;;;;;;22.50;13.20;;;;;;;1.13;100.00;94380.38;5068821;28;20743;-72
2023/01/31 07:59:30;;;;;;;23.70;12.23;;;;;;;1.18;100.00;94377.34;5074571;28;20206;-74
2023/01/31 08:04:42;;;;;;;24.60;13.50;;;;;;;0.97;100.00;94368.47;5069270;28;20337;-74
2023/01/31 08:07:09;;;;;;;25.97;13.43;;;;;;;1.12;100.00;94378.78;5068428;28;20674;-74
2023/01/31 08:09:37;;;;;;;23.40;12.00;;;;;;;1.13;100.00;94370.13;5067572;28;21524;-74
2023/01/31 08:12:05;;;;;;;25.43;14.10;;;;;;;1.26;100.00;94382.41;5064757;28;20202;-73
2023/01/31 08:14:32;;;;;;;29.67;15.43;;;;;;;1.32;100.00;94374.06;5066492;28;20217;-74
2023/01/31 08:16:59;;;;;;;18.47;10.07;;;;;;;1.35;100.00;94382.19;5069901;28;20619;-74
2023/01/31 08:19:25;;;;;;;26.47;12.83;;;;;;;1.41;100.00;94390.97;5064782;28;20205;-75
2023/01/31 08:21:53;;;;;;;22.27;12.33;;;;;;;1.51;100.00;94379.53;5071965;28;20691;-75
2023/01/31 08:24:20;;;;;;;27.57;13.63;;;;;;;1.65;100.00;94368.56;5067615;28;20220;-73
2023/01/31 08:26:47;;;;;;;25.17;13.70;;;;;;;1.77;100.00;94376.63;5054611;28;20282;-78
2023/01/31 08:29:23;;;;;;;27.17;14.03;;;;;;;1.81;100.00;94354.03;5062494;28;20232;-80
2023/01/31 08:31:51;;;;;;;25.30;12.80;;;;;;;2.00;100.00;94356.13;5065926;28;20580;-79
2023/01/31 08:34:18;;;;;;;24.17;13.83;;;;;;;1.86;100.00;94344.88;5069142;28;20228;-80
2023/01/31 08:36:45;;;;;;;19.93;11.10;;;;;;;1.97;100.00;94359.81;5065020;28;20218;-84
2023/01/31 08:39:13;;;;;;;14.33;8.93;;;;;;;1.86;100.00;94351.75;5072178;28;20200;-86
2023/01/31 08:41:40;;;;;;;22.57;11.73;;;;;;;1.88;100.00;94355.72;5067899;28;20192;-83
2023/01/31 08:44:07;;;;;;;21.70;10.97;;;;;;;1.89;100.00;94372.72;5070033;28;20254;-83
2023/01/31 08:46:36;;;;;;;13.50;7.80;;;;;;;1.86;100.00;94370.47;5063450;28;20212;-83
2023/01/31 08:49:06;;;;;;;16.17;9.70;;;;;;;1.91;100.00;94368.19;5060917;28;20214;-82
2023/01/31 08:51:33;;;;;;;18.23;10.43;;;;;;;1.79;100.00;94368.78;5067922;28;20209;-78
2023/01/31 08:54:00;;;;;;;23.97;11.53;;;;;;;1.83;100.00;94370.03;5072905;28;20219;-79
2023/01/31 08:56:28;;;;;;;17.80;10.93;;;;;;;1.93;100.00;94376.53;5076214;28;20199;-77
2023/01/31 08:58:57;;;;;;;16.73;8.83;;;;;;;1.90;100.00;94370.94;5069139;28;20770;-78
2023/01/31 09:01:24;;;;;;;14.90;8.77;;;;;;;2.03;100.00;94368.59;5071689;28;20217;-78
2023/01/31 09:03:55;;;;;;;16.27;9.37;;;;;;;2.01;100.00;94366.22;5069923;28;20202;-78
2023/01/31 09:06:24;;;;;;;18.20;10.17;;;;;;;2.07;99.88;94369.84;5075000;28;20193;-80
2023/01/31 09:09:14;;;;;;;;;;;;;;;;;;;;;
2023/01/31 09:11:59;;;;;;;17.70;9.40;;;;;;;2.10;99.73;94375.44;5071857;28;20204;-80
2023/01/31 09:14:51;;;;;;;14.23;8.00;;;;;;;1.74;98.47;94310.38;5071186;28;20243;-88
2023/01/31 09:17:19;;;;;;;15.97;8.73;;;;;;;1.98;98.83;94338.38;5068311;28;20595;-82
2023/01/31 09:19:47;;;;;;;13.47;7.60;;;;;;;2.26;97.56;94348.84;5067291;28;20228;-82
2023/01/31 09:22:13;;;;;;;12.53;8.23;;;;;;;2.45;97.06;94378.31;5077318;28;20203;-80
2023/01/31 09:24:40;;;;;;;18.73;10.00;;;;;;;2.46;96.89;94365.31;5069727;28;20686;-78
2023/01/31 09:27:09;;;;;;;17.63;10.13;;;;;;;2.51;96.92;94367.34;5072983;28;20231;-76
2023/01/31 09:29:35;;;;;;;15.87;9.87;;;;;;;2.72;96.63;94357.19;5070810;28;20232;-76
2023/01/31 09:32:02;;;;;;;14.30;8.23;;;;;;;2.75;96.55;94352.50;5069083;28;20205;-78
2023/01/31 09:34:30;;;;;;;11.97;8.07;;;;;;;2.62;97.11;94343.84;5068727;28;20255;-77
2023/01/31 09:36:57;;;;;;;15.03;9.00;;;;;;;2.84;96.17;94358.31;5072132;28;20231;-79
2023/01/31 09:39:24;;;;;;;10.97;6.77;;;;;;;2.70;95.22;94338.59;5072026;28;20228;-80
2023/01/31 09:41:55;;;;;;;12.47;7.37;;;;;;;2.64;95.66;94347.81;5069722;28;20201;-82
2023/01/31 09:44:31;;;;;;;12.83;8.37;;;;;;;3.00;95.19;94350.41;5069186;28;20251;-80
2023/01/31 09:47:09;;;;;;;12.97;8.10;;;;;;;3.43;94.04;94352.09;5071486;28;20190;-81
2023/01/31 09:49:44;;;;;;;13.67;8.00;;;;;;;3.54;92.83;94344.91;5069556;28;20209;-79
2023/01/31 09:52:11;;;;;;;10.03;6.37;;;;;;;4.09;90.15;94337.31;5071620;28;20681;-80
2023/01/31 09:54:40;;;;;;;13.13;7.20;;;;;;;4.46;87.64;94320.75;5071423;28;20267;-80
2023/01/31 09:57:19;;;;;;;12.60;8.13;;;;;;;5.33;86.73;94342.34;5071999;28;20991;-81
2023/01/31 09:59:54;;;;;;;13.13;7.83;;;;;;;6.05;83.17;94346.88;5067542;28;20668;-81
2023/01/31 10:02:48;;;;;;;14.60;8.37;;;;;;;5.81;82.87;94355.16;5080228;28;20197;-81
2023/01/31 10:05:30;;;;;;;13.60;8.20;;;;;;;5.80;82.24;94345.84;5073393;28;20217;-76
2023/01/31 10:08:09;;;;;;;13.23;7.67;;;;;;;5.14;84.15;94346.44;5077615;28;20547;-75
2023/01/31 10:10:41;;;;;;;17.27;8.80;;;;;;;5.46;83.61;94333.84;5077749;28;20627;-75
2023/01/31 10:13:17;;;;;;;15.03;8.03;;;;;;;5.79;82.40;94341.66;5080058;28;20189;-76
2023/01/31 10:15:48;;;;;;;16.87;9.53;;;;;;;6.09;81.83;94330.03;5083193;28;20194;-76
2023/01/31 10:18:19;;;;;;;10.37;7.23;;;;;;;6.25;80.17;94334.78;5079896;28;20190;-76
2023/01/31 10:20:50;;;;;;;12.37;8.67;;;;;;;6.42;79.22;94330.78;5082112;28;20230;-76
2023/01/31 10:23:23;;;;;;;11.67;7.00;;;;;;;6.28;79.32;94324.06;5079216;28;20204;-75
2023/01/31 10:25:55;;;;;;;13.57;8.50;;;;;;;6.83;77.97;94331.31;5077773;28;20243;-76
2023/01/31 10:28:27;;;;;;;12.60;8.53;;;;;;;7.25;77.18;94314.47;5079618;28;20202;-76
2023/01/31 10:31:01;;;;;;;9.90;6.23;;;;;;;7.40;75.28;94327.13;5080275;28;20226;-76
2023/01/31 10:33:38;;;;;;;7.30;5.40;;;;;;;7.05;75.71;94329.25;5079687;28;20203;-76
2023/01/31 10:36:11;;;;;;;9.70;5.90;;;;;;;6.94;76.40;94329.09;5079807;28;20565;-76
2023/01/31 10:38:48;;;;;;;11.23;6.30;;;;;;;6.72;77.44;94315.66;5080331;28;20535;-76
2023/01/31 10:41:21;;;;;;;9.97;7.07;;;;;;;6.34;79.28;94317.31;5080073;28;20252;-76
2023/01/31 10:43:57;;;;;;;10.17;6.10;;;;;;;5.88;80.00;94300.06;5081224;28;20668;-76
2023/01/31 10:46:25;;;;;;;10.17;7.03;;;;;;;6.25;79.13;94294.31;5082397;28;20265;-76
2023/01/31 10:48:52;;;;;;;9.53;5.97;;;;;;;7.06;78.15;94302.44;5065910;28;20199;-84
2023/01/31 10:51:36;;;;;;;6.80;5.10;;;;;;;7.64;75.81;94308.31;5072059;28;20655;-85
2023/01/31 10:54:29;;;;;;;11.03;7.00;;;;;;;7.66;75.32;94316.66;5072395;28;20207;-85
2023/01/31 10:56:57;;;;;;;8.17;5.77;;;;;;;8.12;73.75;94326.69;5072735;28;20195;-85
2023/01/31 10:59:28;;;;;;;7.87;5.97;;;;;;;8.65;71.87;94321.09;5092083;28;20200;-81
2023/01/31 11:01:57;;;;;;;8.53;5.87;;;;;;;8.22;72.21;94323.63;5072054;28;20197;-81
2023/01/31 11:04:29;;;;;;;9.23;5.30;;;;;;;6.87;74.83;94307.69;5071724;28;20193;-78
2023/01/31 11:06:58;;;;;;;9.73;6.57;;;;;;;5.90;78.81;94320.47;5085055;28;20203;-81
2023/01/31 11:09:29;;;;;;;10.87;6.57;;;;;;;5.25;80.88;94332.22;5072079;28;20196;-85
2023/01/31 11:11:57;;;;;;;8.17;5.90;;;;;;;4.54;83.58;94300.81;5073824;28;20190;-87
2023/01/31 11:14:25;;;;;;;9.93;6.77;;;;;;;4.68;85.02;94308.59;5074374;28;20317;-84
2023/01/31 11:17:00;;;;;;;10.53;7.20;;;;;;;4.19;86.27;94306.09;5072344;28;20657;-84
2023/01/31 11:19:34;;;;;;;10.70;7.20;;;;;;;4.36;86.69;94320.28;5074209;28;20205;-85
2023/01/31 11:22:02;;;;;;;11.73;8.10;;;;;;;4.37;86.99;94316.72;5078134;28;20279;-81
2023/01/31 11:27:44;;;;;;;10.53;6.50;;;;;;;4.05;88.51;94323.22;5067256;28;20198;-79
2023/01/31 11:30:22;;;;;;;11.30;7.47;;;;;;;3.89;89.43;94319.16;5079525;28;20246;-79
2023/01/31 11:32:52;;;;;;;10.93;6.87;;;;;;;3.85;89.84;94325.63;5075820;28;20197;-79
2023/01/31 11:35:25;;;;;;;9.93;6.87;;;;;;;3.79;90.51;94317.88;5075074;28;20216;-79
2023/01/31 11:37:53;;;;;;;11.37;7.00;;;;;;;3.58;91.42;94326.38;5074824;28;20224;-79
2023/01/31 11:40:26;;;;;;;14.37;9.30;;;;;;;3.51;92.61;94327.28;5076402;28;20197;-79
2023/01/31 11:42:55;;;;;;;13.57;8.70;;;;;;;3.29;93.20;94305.94;5081153;28;20189;-80
2023/01/31 11:45:26;;;;;;;12.73;7.83;;;;;;;3.27;93.50;94320.72;5080657;28;20685;-79
2023/01/31 11:47:57;;;;;;;13.70;8.63;;;;;;;3.16;94.04;94322.00;5079754;28;20216;-79